地図

経路データ

SID SEASON NUMBER BASIN SUBBASIN NAME ISO_TIME NATURE LAT LON WMO_WIND WMO_PRES WMO_AGENCY TRACK_TYPE DIST2LAND LANDFALL IFLAG USA_AGENCY USA_ATCF_ID USA_LAT USA_LON USA_RECORD USA_STATUS USA_WIND USA_PRES USA_SSHS USA_R34_NE USA_R34_SE USA_R34_SW USA_R34_NW USA_R50_NE USA_R50_SE USA_R50_SW USA_R50_NW USA_R64_NE USA_R64_SE USA_R64_SW USA_R64_NW USA_POCI USA_ROCI USA_RMW USA_EYE TOKYO_LAT TOKYO_LON TOKYO_GRADE TOKYO_WIND TOKYO_PRES TOKYO_R50_DIR TOKYO_R50_LONG TOKYO_R50_SHORT TOKYO_R30_DIR TOKYO_R30_LONG TOKYO_R30_SHORT TOKYO_LAND CMA_LAT CMA_LON CMA_CAT CMA_WIND CMA_PRES HKO_LAT HKO_LON HKO_CAT HKO_WIND HKO_PRES NEWDELHI_LAT NEWDELHI_LON NEWDELHI_GRADE NEWDELHI_WIND NEWDELHI_PRES NEWDELHI_CI NEWDELHI_DP NEWDELHI_POCI REUNION_LAT REUNION_LON REUNION_TYPE REUNION_WIND REUNION_PRES REUNION_TNUM REUNION_CI REUNION_RMW REUNION_R34_NE REUNION_R34_SE REUNION_R34_SW REUNION_R34_NW REUNION_R50_NE REUNION_R50_SE REUNION_R50_SW REUNION_R50_NW REUNION_R64_NE REUNION_R64_SE REUNION_R64_SW REUNION_R64_NW BOM_LAT BOM_LON BOM_TYPE BOM_WIND BOM_PRES BOM_TNUM BOM_CI BOM_RMW BOM_R34_NE BOM_R34_SE BOM_R34_SW BOM_R34_NW BOM_R50_NE BOM_R50_SE BOM_R50_SW BOM_R50_NW BOM_R64_NE BOM_R64_SE BOM_R64_SW BOM_R64_NW BOM_ROCI BOM_POCI BOM_EYE BOM_POS_METHOD BOM_PRES_METHOD NADI_LAT NADI_LON NADI_CAT NADI_WIND NADI_PRES WELLINGTON_LAT WELLINGTON_LON WELLINGTON_WIND WELLINGTON_PRES DS824_LAT DS824_LON DS824_STAGE DS824_WIND DS824_PRES TD9636_LAT TD9636_LON TD9636_STAGE TD9636_WIND TD9636_PRES TD9635_LAT TD9635_LON TD9635_WIND TD9635_PRES TD9635_ROCI NEUMANN_LAT NEUMANN_LON NEUMANN_CLASS NEUMANN_WIND NEUMANN_PRES MLC_LAT MLC_LON MLC_CLASS MLC_WIND MLC_PRES USA_GUST BOM_GUST BOM_GUST_PER REUNION_GUST REUNION_GUST_PER USA_SEAHGT USA_SEARAD_NE USA_SEARAD_SE USA_SEARAD_SW USA_SEARAD_NW STORM_SPEED STORM_DIR
1898032S10063 1898 3 SI MM NOT_NAMED 1898-01-31 18:00:00 NR -9.70000 63.2000 main 1305 1270 __________O___ -1 -9.70000 63.2000 7 7 194
1898032S10063 1898 3 SI MM NOT_NAMED 1898-01-31 21:00:00 NR -10.0172 63.1204 main 1270 1235 __________P___ -1 -10.0172 63.1204 7 7 194
1898032S10063 1898 3 SI MM NOT_NAMED 1898-02-01 00:00:00 NR -10.3375 63.0426 main 1235 1205 __________P___ -1 -10.3375 63.0426 7 7 193
1898032S10063 1898 3 SI MM NOT_NAMED 1898-02-01 03:00:00 NR -10.6641 62.9685 main 1195 1160 __________P___ -1 -10.6641 62.9685 7 7 192
1898032S10063 1898 3 SI MM NOT_NAMED 1898-02-01 06:00:00 NR -11.0000 62.9000 main 1160 1125 __________O___ -1 -11.0000 62.9000 7 7 190
1898032S10063 1898 3 SI MM NOT_NAMED 1898-02-01 09:00:00 NR -11.3484 62.8387 main 1125 1086 __________P___ -1 -11.3484 62.8387 7 7 189
1898032S10063 1898 3 SI MM NOT_NAMED 1898-02-01 12:00:00 NR -11.7125 62.7850 main 1086 1042 __________P___ -1 -11.7125 62.7850 7 8 187
1898032S10063 1898 3 SI MM NOT_NAMED 1898-02-01 15:00:00 NR -12.0953 62.7387 main 1042 1003 __________P___ -1 -12.0953 62.7387 7 8 186
1898032S10063 1898 3 SI MM NOT_NAMED 1898-02-01 18:00:00 NR -12.5000 62.7000 main 1003 965 __________O___ -1 -12.5000 62.7000 7 9 184
1898032S10063 1898 3 SI MM NOT_NAMED 1898-02-01 21:00:00 NR -12.9487 62.6637 main 965 913 __________P___ -1 -12.9487 62.6637 7 9 184
1898032S10063 1898 3 SI MM NOT_NAMED 1898-02-02 00:00:00 NR -13.4150 62.6350 main 913 876 __________P___ -1 -13.4150 62.6350 7 9 184
1898032S10063 1898 3 SI MM NOT_NAMED 1898-02-02 03:00:00 NR -13.8738 62.6138 main 867 831 __________P___ -1 -13.8738 62.6138 7 9 182
1898032S10063 1898 3 SI MM NOT_NAMED 1898-02-02 06:00:00 NR -14.3000 62.6000 main 831 805 __________O___ -1 -14.3000 62.6000 7 8 182
1898032S10063 1898 3 SI MM NOT_NAMED 1898-02-02 09:00:00 NR -14.6487 62.5887 main 805 780 __________P___ -1 -14.6487 62.5887 7 7 0
1898032S10063 1898 3 SI MM NOT_NAMED 1898-02-02 12:00:00 NR -14.9650 62.5850 main 771 746 __________P___ -1 -14.9650 62.5850 7 6 178
1898032S10063 1898 3 SI MM NOT_NAMED 1898-02-02 15:00:00 NR -15.2737 62.5888 main 746 722 __________P___ -1 -15.2737 62.5888 7 6 178
1898032S10063 1898 3 SI MM NOT_NAMED 1898-02-02 18:00:00 NR -15.6000 62.6000 main 722 691 __________O___ -1 -15.6000 62.6000 7 7 178
1898032S10063 1898 3 SI MM NOT_NAMED 1898-02-02 21:00:00 NR -15.9866 62.6138 main 691 662 __________P___ -1 -15.9866 62.6138 7 8 177
1898032S10063 1898 3 SI MM NOT_NAMED 1898-02-03 00:00:00 NR -16.3925 62.6350 main 662 643 __________P___ -1 -16.3925 62.6350 7 8 177
1898032S10063 1898 3 SI MM NOT_NAMED 1898-02-03 03:00:00 NR -16.8022 62.6638 main 643 618 __________P___ -1 -16.8022 62.6638 7 8 176
1898032S10063 1898 3 SI MM NOT_NAMED 1898-02-03 06:00:00 NR -17.2000 62.7000 main 618 595 __________O___ -1 -17.2000 62.7000 7 8 175
1898032S10063 1898 3 SI MM NOT_NAMED 1898-02-03 09:00:00 NR -17.5765 62.7388 main 595 589 __________P___ -1 -17.5765 62.7388 7 7 174
1898032S10063 1898 3 SI MM NOT_NAMED 1898-02-03 12:00:00 NR -17.9375 62.7850 main 589 570 __________P___ -1 -17.9375 62.7850 7 7 172
1898032S10063 1898 3 SI MM NOT_NAMED 1898-02-03 15:00:00 NR -18.2797 62.8388 main 570 567 __________P___ -1 -18.2797 62.8388 7 7 171
1898032S10063 1898 3 SI MM NOT_NAMED 1898-02-03 18:00:00 NR -18.6000 62.9000 main 567 556 __________O___ -1 -18.6000 62.9000 7 6 169
1898032S10063 1898 3 SI MM NOT_NAMED 1898-02-03 21:00:00 NR -18.8843 62.9559 main 566 560 __________P___ -1 -18.8843 62.9559 7 6 169
1898032S10063 1898 3 SI MM NOT_NAMED 1898-02-04 00:00:00 NR -19.1499 63.0204 main 560 555 __________P___ -1 -19.1499 63.0204 7 6 166
1898032S10063 1898 3 SI MM NOT_NAMED 1898-02-04 03:00:00 NR -19.4156 63.0997 main 563 559 __________P___ -1 -19.4156 63.0997 7 6 163
1898032S10063 1898 3 SI MM NOT_NAMED 1898-02-04 06:00:00 NR -19.7000 63.2000 main 568 566 __________O___ -1 -19.7000 63.2000 7 7 161
1898032S10063 1898 3 SI MM NOT_NAMED 1898-02-04 09:00:00 NR -20.0447 63.3322 main 575 574 __________P___ -1 -20.0447 63.3322 7 8 159
1898032S10063 1898 3 SI MM NOT_NAMED 1898-02-04 12:00:00 NR -20.4076 63.4846 main 594 594 __________P___ -1 -20.4076 63.4846 7 8 158
1898032S10063 1898 3 SI MM NOT_NAMED 1898-02-04 15:00:00 NR -20.7666 63.6448 main 606 606 __________P___ -1 -20.7666 63.6448 7 8 157
1898032S10063 1898 3 SI MM NOT_NAMED 1898-02-04 18:00:00 NR -21.1000 63.8000 main 630 630 __________O___ -1 -21.1000 63.8000 7 7 157
1898032S10063 1898 3 SI MM NOT_NAMED 1898-02-04 21:00:00 NR -21.3704 63.9125 main 645 645 __________P___ -1 -21.3704 63.9125 7 6 158
1898032S10063 1898 3 SI MM NOT_NAMED 1898-02-05 00:00:00 NR -21.6147 64.0210 main 659 659 __________P___ -1 -21.6147 64.0210 7 5 156
1898032S10063 1898 3 SI MM NOT_NAMED 1898-02-05 03:00:00 NR -21.8516 64.1439 main 677 677 __________P___ -1 -21.8516 64.1439 7 6 152
1898032S10063 1898 3 SI MM NOT_NAMED 1898-02-05 06:00:00 NR -22.1000 64.3000 main 703 703 __________O___ -1 -22.1000 64.3000 7 7 147
1898032S10063 1898 3 SI MM NOT_NAMED 1898-02-05 09:00:00 NR -22.3940 64.5298 main 732 732 __________P___ -1 -22.3940 64.5298 7 8 143
1898032S10063 1898 3 SI MM NOT_NAMED 1898-02-05 12:00:00 NR -22.7004 64.7918 main 772 772 __________P___ -1 -22.7004 64.7918 7 8 141
1898032S10063 1898 3 SI MM NOT_NAMED 1898-02-05 15:00:00 NR -23.0065 65.0580 main 812 812 __________P___ -1 -23.0065 65.0580 7 8 142
1898032S10063 1898 3 SI MM NOT_NAMED 1898-02-05 18:00:00 NR -23.3000 65.3000 main 843 843 __________O___ -1 -23.3000 65.3000 7 7 147
1898032S10063 1898 3 SI MM NOT_NAMED 1898-02-05 21:00:00 NR -23.5681 65.4632 main 874 874 __________P___ -1 -23.5681 65.4632 7 6 152
1898032S10063 1898 3 SI MM NOT_NAMED 1898-02-06 00:00:00 NR -23.8220 65.6010 main 892 892 __________P___ -1 -23.8220 65.6010 7 6 153
1898032S10063 1898 3 SI MM NOT_NAMED 1898-02-06 03:00:00 NR -24.0650 65.7382 main 915 915 __________P___ -1 -24.0650 65.7382 7 6 150
1898032S10063 1898 3 SI MM NOT_NAMED 1898-02-06 06:00:00 NR -24.3000 65.9000 main 943 943 __________O___ -1 -24.3000 65.9000 7 6 144
1898032S10063 1898 3 SI MM NOT_NAMED 1898-02-06 09:00:00 NR -24.5404 66.1252 main 971 971 __________P___ -1 -24.5404 66.1252 7 6 137
1898032S10063 1898 3 SI MM NOT_NAMED 1898-02-06 12:00:00 NR -24.7727 66.3773 main 1013 1013 __________P___ -1 -24.7727 66.3773 7 7 134
1898032S10063 1898 3 SI MM NOT_NAMED 1898-02-06 15:00:00 NR -24.9935 66.6409 main 1041 1041 __________P___ -1 -24.9935 66.6409 7 6 132
1898032S10063 1898 3 SI MM NOT_NAMED 1898-02-06 18:00:00 NR -25.2000 66.9000 main 1078 1078 __________O___ -1 -25.2000 66.9000 7 6 131
1898032S10063 1898 3 SI MM NOT_NAMED 1898-02-06 21:00:00 NR -25.3903 67.1424 main 1106 1106 __________P___ -1 -25.3903 67.1424 7 6 131
1898032S10063 1898 3 SI MM NOT_NAMED 1898-02-07 00:00:00 NR -25.5676 67.3698 main 1143 1143 __________P___ -1 -25.5676 67.3698 7 5 131
1898032S10063 1898 3 SI MM NOT_NAMED 1898-02-07 03:00:00 NR -25.7360 67.5873 main 1166 1166 __________P___ -1 -25.7360 67.5873 7 5 131
1898032S10063 1898 3 SI MM NOT_NAMED 1898-02-07 06:00:00 NR -25.9000 67.8000 main 1194 __________O___ -1 -25.9000 67.8000 7 5 131

IBTrACS Databaseについて

本データベースは、米国NOAAが公開する1842年以降の世界の熱帯低気圧のベストトラックデータアーカイブInternational Best Track Archive for Climate Stewardship (IBTrACS)を、ウェブで閲覧しやすい形式に変換したものです。

最終更新日:2021-10-21